createdAt,value
2022-09-05T00:01:43.089Z,17.90
2022-09-05T00:04:25.311Z,17.90
2022-09-05T00:07:31.103Z,17.90
2022-09-05T00:10:03.336Z,18.00
2022-09-05T00:12:36.104Z,18.00
2022-09-05T00:15:32.373Z,18.00
2022-09-05T00:24:17.472Z,17.90
2022-09-05T00:24:19.621Z,17.90
2022-09-05T00:24:45.641Z,17.70
2022-09-05T00:27:09.954Z,17.80
2022-09-05T00:31:05.319Z,17.80
2022-09-05T00:32:50.928Z,17.80
2022-09-05T00:35:37.492Z,17.70
2022-09-05T00:38:17.841Z,17.60
2022-09-05T00:40:58.780Z,17.70
2022-09-05T00:43:37.204Z,17.70
2022-09-05T00:46:22.432Z,17.80
2022-09-05T00:48:53.893Z,17.80
2022-09-05T00:51:34.222Z,17.80
2022-09-05T00:54:02.494Z,17.70
2022-09-05T00:56:50.567Z,17.60
2022-09-05T00:59:50.847Z,17.50
2022-09-05T01:02:51.246Z,17.40
2022-09-05T01:05:41.450Z,17.40
2022-09-05T01:08:27.589Z,17.40
2022-09-05T01:11:19.919Z,17.40
2022-09-05T01:14:15.594Z,17.50
2022-09-05T01:17:04.729Z,17.40
2022-09-05T01:19:43.935Z,17.50
2022-09-05T01:22:48.395Z,17.30
2022-09-05T01:25:55.259Z,17.30
2022-09-05T01:29:15.254Z,17.30
2022-09-05T01:31:36.423Z,17.30
2022-09-05T01:34:24.871Z,17.40
2022-09-05T01:37:37.544Z,17.50
2022-09-05T01:40:19.792Z,17.50
2022-09-05T01:43:06.294Z,17.60
2022-09-05T01:45:45.729Z,17.60
2022-09-05T01:48:44.492Z,17.50
2022-09-05T01:52:07.957Z,17.50
2022-09-05T01:55:12.266Z,17.50
2022-09-05T01:57:57.796Z,17.50
2022-09-05T02:00:35.189Z,17.50
2022-09-05T02:03:21.910Z,17.50
2022-09-05T02:06:15.852Z,17.50
2022-09-05T02:09:13.475Z,17.40
2022-09-05T02:11:58.743Z,17.50
2022-09-05T02:14:45.559Z,17.50
2022-09-05T02:17:50.525Z,17.50
2022-09-05T02:20:46.315Z,17.40
2022-09-05T02:23:40.387Z,17.40
2022-09-05T02:26:23.111Z,17.30
2022-09-05T02:29:03.151Z,17.20
2022-09-05T02:31:39.638Z,17.20
2022-09-05T02:34:17.667Z,17.10
2022-09-05T02:37:16.784Z,17.00
2022-09-05T02:45:06.536Z,17.00
2022-09-05T02:45:11.604Z,17.00
2022-09-05T02:47:09.851Z,17.00
2022-09-05T02:53:19.704Z,16.90
2022-09-05T02:57:25.273Z,16.90
2022-09-05T02:57:42.130Z,16.90
2022-09-05T02:59:05.782Z,16.90
2022-09-05T03:01:52.830Z,16.80
2022-09-05T03:04:27.899Z,16.80
2022-09-05T03:07:12.566Z,16.80
2022-09-05T03:10:04.609Z,16.80
2022-09-05T03:12:56.020Z,16.70
2022-09-05T03:16:11.549Z,16.70
2022-09-05T03:18:51.009Z,16.70
2022-09-05T03:21:30.024Z,16.70
2022-09-05T03:24:19.360Z,16.70
2022-09-05T03:27:16.411Z,16.80
2022-09-05T03:30:08.396Z,16.70
2022-09-05T03:33:08.702Z,16.60
2022-09-05T03:35:40.009Z,16.60
2022-09-05T03:38:28.029Z,16.60
2022-09-05T03:41:04.564Z,16.60
2022-09-05T03:44:06.144Z,16.70
2022-09-05T03:46:46.639Z,16.50
2022-09-05T03:53:09.887Z,16.50
2022-09-05T03:57:06.882Z,16.40
2022-09-05T03:57:12.925Z,16.50
2022-09-05T03:59:02.399Z,16.40
2022-09-05T04:03:15.876Z,16.40
2022-09-05T04:08:25.940Z,16.50
2022-09-05T04:08:26.111Z,16.50
2022-09-05T04:10:40.735Z,16.50
2022-09-05T04:13:23.592Z,16.50
2022-09-05T04:16:14.231Z,16.40
2022-09-05T04:19:07.940Z,16.40
2022-09-05T04:21:38.850Z,16.40
2022-09-05T04:24:12.096Z,16.50
2022-09-05T04:27:04.559Z,16.50
2022-09-05T04:30:00.222Z,16.50
2022-09-05T04:32:28.078Z,16.50
2022-09-05T04:35:26.627Z,16.40
2022-09-05T04:37:59.541Z,16.40
2022-09-05T04:40:32.970Z,16.40
2022-09-05T04:43:07.141Z,16.30
2022-09-05T04:45:43.870Z,16.40
2022-09-05T04:48:21.510Z,16.30
2022-09-05T04:51:06.232Z,16.30
2022-09-05T04:54:04.773Z,16.30
2022-09-05T04:56:38.516Z,16.30
2022-09-05T05:02:15.088Z,16.30
2022-09-05T05:06:10.310Z,16.50
2022-09-05T05:06:15.111Z,16.40
2022-09-05T05:08:28.781Z,16.70
2022-09-05T05:17:01.001Z,16.90
2022-09-05T05:18:07.955Z,17.40
2022-09-05T05:18:13.106Z,17.10
2022-09-05T05:20:41.212Z,17.60
2022-09-05T05:23:17.891Z,18.00
2022-09-05T05:25:50.784Z,18.40
2022-09-05T05:28:54.928Z,18.30
2022-09-05T05:31:37.658Z,18.40
2022-09-05T05:34:24.614Z,18.60
2022-09-05T05:37:22.922Z,19.10
2022-09-05T05:40:19.324Z,19.30
2022-09-05T05:42:47.973Z,19.20
2022-09-05T05:45:28.575Z,19.70
2022-09-05T05:48:06.756Z,19.90
2022-09-05T05:50:50.048Z,20.40
2022-09-05T05:54:06.982Z,20.80
2022-09-05T05:57:25.251Z,20.60
2022-09-05T06:00:17.787Z,19.70
2022-09-05T06:03:26.339Z,19.60
2022-09-05T06:06:13.301Z,19.70
2022-09-05T06:12:34.414Z,19.80
2022-09-05T06:14:57.484Z,19.80
2022-09-05T06:15:46.687Z,19.20
2022-09-05T06:18:28.248Z,19.80
2022-09-05T06:22:08.806Z,19.90
2022-09-05T06:24:42.537Z,19.90
2022-09-05T06:27:33.448Z,20.50
2022-09-05T06:35:11.129Z,21.10
2022-09-05T06:38:39.396Z,20.90
2022-09-05T06:41:22.164Z,21.30
2022-09-05T06:44:01.687Z,21.20
2022-09-05T06:47:07.757Z,21.10
2022-09-05T06:49:59.207Z,21.30
2022-09-05T06:53:19.663Z,21.10
2022-09-05T06:56:06.387Z,21.20
2022-09-05T06:59:21.323Z,21.50
2022-09-05T07:02:00.736Z,21.70
2022-09-05T07:05:37.105Z,21.80
2022-09-05T07:07:48.776Z,22.20
2022-09-05T07:10:46.000Z,22.30
2022-09-05T07:13:19.731Z,22.00
2022-09-05T07:15:59.581Z,22.50
2022-09-05T07:18:35.354Z,22.80
2022-09-05T07:21:17.811Z,23.30
2022-09-05T07:24:09.548Z,23.40
2022-09-05T07:26:54.115Z,23.20
2022-09-05T07:30:01.978Z,24.00
2022-09-05T07:32:40.735Z,23.40
2022-09-05T07:35:17.596Z,23.30
2022-09-05T07:37:49.108Z,23.60
2022-09-05T07:40:25.203Z,24.30
2022-09-05T07:43:42.969Z,24.50
2022-09-05T07:46:23.261Z,24.30
2022-09-05T07:48:57.977Z,24.50
2022-09-05T07:56:36.293Z,24.10
2022-09-05T07:57:01.037Z,24.20
2022-09-05T07:57:31.719Z,24.20
2022-09-05T08:00:27.184Z,24.00
2022-09-05T08:03:01.182Z,24.00
2022-09-05T08:05:40.392Z,23.80
2022-09-05T08:08:12.508Z,23.70
2022-09-05T08:11:22.493Z,23.70
2022-09-05T08:13:52.524Z,24.10
2022-09-05T08:16:24.551Z,23.50
2022-09-05T08:19:07.612Z,23.60
2022-09-05T08:21:44.224Z,23.70
2022-09-05T08:24:29.004Z,24.10
2022-09-05T08:27:16.318Z,24.20
2022-09-05T08:30:25.617Z,24.60
2022-09-05T08:33:14.850Z,25.30
2022-09-05T08:35:48.858Z,24.60
2022-09-05T08:38:21.497Z,25.00
2022-09-05T08:41:08.940Z,25.70
2022-09-05T08:46:35.890Z,26.00
2022-09-05T08:46:50.329Z,25.50
2022-09-05T08:49:44.098Z,25.70
2022-09-05T09:02:47.907Z,26.70
2022-09-05T09:06:08.499Z,27.20
2022-09-05T09:08:49.468Z,27.20
2022-09-05T09:11:36.864Z,26.80
2022-09-05T09:14:32.891Z,26.70
2022-09-05T09:17:26.862Z,27.20
2022-09-05T09:20:00.610Z,27.90
2022-09-05T09:22:34.174Z,28.40
2022-09-05T09:25:15.993Z,28.90
2022-09-05T09:28:30.188Z,29.20
2022-09-05T09:30:42.420Z,28.90
2022-09-05T09:33:16.363Z,29.00
2022-09-05T09:36:07.788Z,29.10
2022-09-05T09:39:37.296Z,29.10
2022-09-05T09:42:32.256Z,28.70
2022-09-05T09:45:29.785Z,28.80
2022-09-05T09:48:09.728Z,29.20
2022-09-05T09:50:58.222Z,29.60
2022-09-05T09:53:49.136Z,29.80
2022-09-05T09:56:54.030Z,29.90
2022-09-05T09:59:24.594Z,29.00
2022-09-05T10:02:47.807Z,28.50
2022-09-05T10:10:38.496Z,28.30
2022-09-05T10:10:49.218Z,28.20
2022-09-05T10:11:52.091Z,28.10
2022-09-05T10:14:47.753Z,28.30
2022-09-05T10:17:33.561Z,28.50
2022-09-05T10:20:11.530Z,27.80
2022-09-05T10:23:16.807Z,28.10
2022-09-05T10:26:08.770Z,28.10
2022-09-05T10:28:42.882Z,28.20
2022-09-05T10:33:11.888Z,28.70
2022-09-05T10:35:17.539Z,28.70
2022-09-05T10:37:18.394Z,28.90
2022-09-05T10:39:52.547Z,29.10
2022-09-05T10:43:00.385Z,29.10
2022-09-05T10:45:49.742Z,28.90
2022-09-05T10:48:40.884Z,28.40
2022-09-05T10:51:38.837Z,28.40
2022-09-05T10:54:35.670Z,28.50
2022-09-05T10:57:32.560Z,28.80
2022-09-05T11:02:23.924Z,29.10
2022-09-05T11:03:23.510Z,28.90
2022-09-05T11:05:57.915Z,28.60
2022-09-05T11:08:28.484Z,28.00
2022-09-05T11:11:08.215Z,28.10
2022-09-05T11:14:00.888Z,28.50
2022-09-05T11:16:39.642Z,28.70
2022-09-05T11:19:29.184Z,28.30
2022-09-05T11:22:23.671Z,28.40
2022-09-05T11:24:59.706Z,28.50
2022-09-05T11:27:40.090Z,28.80
2022-09-05T11:30:30.091Z,28.50
2022-09-05T11:39:23.983Z,28.70
2022-09-05T11:39:54.428Z,28.80
2022-09-05T11:39:55.602Z,28.30
2022-09-05T11:42:39.419Z,28.60
2022-09-05T11:45:13.083Z,28.80
2022-09-05T11:47:47.619Z,28.90
2022-09-05T11:50:30.679Z,28.90
2022-09-05T11:53:17.247Z,28.90
2022-09-05T11:56:12.596Z,29.00
2022-09-05T11:59:13.807Z,28.80
2022-09-05T12:01:44.353Z,28.40
2022-09-05T12:04:46.364Z,28.10
2022-09-05T12:07:40.133Z,28.20
2022-09-05T12:10:43.477Z,28.30
2022-09-05T12:13:35.319Z,28.70
2022-09-05T12:16:27.896Z,29.10
2022-09-05T12:19:18.721Z,29.30
2022-09-05T12:22:18.506Z,29.00
2022-09-05T12:25:27.405Z,28.80
2022-09-05T12:27:46.176Z,28.80
2022-09-05T12:30:22.354Z,29.10
2022-09-05T12:36:02.154Z,29.30
2022-09-05T12:40:48.317Z,29.10
2022-09-05T12:41:32.428Z,29.20
2022-09-05T12:42:27.965Z,29.30
2022-09-05T12:45:39.489Z,29.10
2022-09-05T12:48:10.688Z,29.00
2022-09-05T12:50:47.447Z,29.20
2022-09-05T12:53:20.966Z,29.30
2022-09-05T12:56:41.414Z,29.10
2022-09-05T13:02:58.519Z,29.00
2022-09-05T13:03:13.271Z,29.20
2022-09-05T13:04:52.530Z,29.20
2022-09-05T13:07:38.915Z,29.10
2022-09-05T13:12:54.051Z,29.10
2022-09-05T13:14:52.983Z,29.00
2022-09-05T13:16:31.891Z,29.20
2022-09-05T13:19:13.286Z,29.40
2022-09-05T13:21:45.607Z,29.50
2022-09-05T13:24:24.246Z,29.50
2022-09-05T13:27:03.502Z,29.40
2022-09-05T13:30:11.871Z,29.30
2022-09-05T13:38:15.468Z,29.20
2022-09-05T13:38:19.480Z,29.40
2022-09-05T13:38:56.423Z,29.10
2022-09-05T13:41:34.539Z,29.10
2022-09-05T13:44:26.402Z,28.90
2022-09-05T13:47:29.280Z,28.90
2022-09-05T13:50:20.440Z,29.00
2022-09-05T13:53:13.393Z,29.30
2022-09-05T13:56:03.758Z,29.20
2022-09-05T13:58:45.423Z,29.20
2022-09-05T14:02:26.871Z,29.30
2022-09-05T14:05:07.465Z,29.40
2022-09-05T14:07:52.886Z,29.50
2022-09-05T14:10:41.495Z,29.60
2022-09-05T14:13:24.574Z,29.40
2022-09-05T14:16:07.644Z,29.50
2022-09-05T14:19:01.260Z,29.50
2022-09-05T14:21:33.367Z,29.40
2022-09-05T14:24:27.518Z,29.40
2022-09-05T14:27:00.373Z,29.50
2022-09-05T14:29:41.209Z,29.60
2022-09-05T14:37:36.766Z,29.50
2022-09-05T14:37:44.070Z,29.50
2022-09-05T14:38:15.750Z,29.60
2022-09-05T14:41:07.168Z,29.40
2022-09-05T14:43:56.729Z,29.20
2022-09-05T14:46:45.310Z,29.20
2022-09-05T14:49:29.087Z,29.30
2022-09-05T14:51:58.379Z,29.40
2022-09-05T15:02:38.101Z,29.20
2022-09-05T15:02:57.693Z,29.20
2022-09-05T15:03:12.487Z,29.30
2022-09-05T15:12:26.086Z,29.50
2022-09-05T15:15:06.335Z,29.50
2022-09-05T15:17:35.072Z,29.50
2022-09-05T15:20:08.828Z,29.50
2022-09-05T15:22:41.811Z,29.30
2022-09-05T15:25:18.052Z,29.10
2022-09-05T15:27:47.061Z,29.20
2022-09-05T15:30:34.787Z,29.30
2022-09-05T15:33:13.363Z,29.30
2022-09-05T15:35:44.049Z,29.20
2022-09-05T15:38:55.437Z,29.30
2022-09-05T15:41:23.865Z,29.30
2022-09-05T15:44:03.103Z,29.20
2022-09-05T15:46:49.684Z,29.20
2022-09-05T15:49:40.662Z,29.10
2022-09-05T15:52:31.797Z,29.10
2022-09-05T15:55:10.836Z,29.00
2022-09-05T15:57:43.430Z,29.00
2022-09-05T16:00:32.878Z,28.90
2022-09-05T16:05:53.389Z,28.80
2022-09-05T16:10:28.351Z,28.80
2022-09-05T16:10:39.496Z,28.70
2022-09-05T16:12:34.118Z,28.70
2022-09-05T16:17:59.060Z,28.60
2022-09-05T16:23:15.137Z,28.50
2022-09-05T16:23:28.411Z,28.60
2022-09-05T16:23:54.321Z,28.60
2022-09-05T16:26:27.934Z,28.40
2022-09-05T16:29:13.742Z,28.20
2022-09-05T16:31:55.711Z,28.10
2022-09-05T16:34:42.765Z,28.00
2022-09-05T16:37:14.448Z,27.80
2022-09-05T16:39:58.727Z,27.70
2022-09-05T16:42:53.421Z,27.50
2022-09-05T16:45:42.606Z,27.30
2022-09-05T16:48:47.230Z,27.20
2022-09-05T16:51:35.188Z,27.00
2022-09-05T16:54:15.870Z,26.90
2022-09-05T16:56:48.800Z,26.80
2022-09-05T16:59:32.038Z,26.60
2022-09-05T17:02:22.657Z,26.60
2022-09-05T17:05:38.122Z,26.50
2022-09-05T17:08:11.476Z,26.40
2022-09-05T17:10:50.746Z,26.40
2022-09-05T17:13:42.326Z,26.30
2022-09-05T17:16:21.324Z,26.20
2022-09-05T17:18:52.651Z,26.20
2022-09-05T17:21:43.477Z,26.10
2022-09-05T17:29:19.041Z,26.10
2022-09-05T17:29:47.133Z,26.00
2022-09-05T17:32:56.675Z,25.90
2022-09-05T17:35:55.130Z,25.80
2022-09-05T17:38:27.794Z,25.70
2022-09-05T17:41:10.860Z,25.50
2022-09-05T17:43:40.951Z,25.40
2022-09-05T17:46:20.314Z,25.40
2022-09-05T17:49:18.497Z,25.30
2022-09-05T17:51:35.993Z,25.20
2022-09-05T17:54:05.091Z,25.10
2022-09-05T17:56:38.487Z,25.10
2022-09-05T17:59:18.766Z,25.00
2022-09-05T18:02:02.047Z,24.90
2022-09-05T18:04:45.119Z,24.90
2022-09-05T18:07:31.192Z,24.90
2022-09-05T18:10:14.528Z,24.80
2022-09-05T18:13:13.382Z,24.80
2022-09-05T18:15:40.203Z,24.80
2022-09-05T18:18:20.001Z,24.60
2022-09-05T18:21:21.247Z,24.60
2022-09-05T18:24:01.764Z,24.60
2022-09-05T18:26:40.106Z,24.60
2022-09-05T18:29:58.125Z,24.60
2022-09-05T18:32:42.458Z,24.60
2022-09-05T18:35:26.635Z,24.50
2022-09-05T18:38:04.481Z,24.40
2022-09-05T18:40:37.386Z,24.30
2022-09-05T18:43:13.863Z,24.20
2022-09-05T18:45:52.998Z,24.10
2022-09-05T18:48:29.772Z,24.10
2022-09-05T18:51:15.034Z,24.10
2022-09-05T18:53:47.573Z,24.00
2022-09-05T18:56:27.327Z,24.00
2022-09-05T18:59:09.622Z,24.10
2022-09-05T19:01:45.421Z,24.10
2022-09-05T19:04:40.929Z,24.00
2022-09-05T19:07:14.313Z,23.50
2022-09-05T19:10:33.993Z,23.30
2022-09-05T19:13:03.171Z,23.10
2022-09-05T19:15:37.263Z,23.10
2022-09-05T19:18:26.801Z,23.10
2022-09-05T19:20:55.841Z,23.20
2022-09-05T19:23:28.181Z,23.20
2022-09-05T19:26:09.690Z,23.20
2022-09-05T19:36:05.348Z,23.10
2022-09-05T19:36:53.754Z,23.20
2022-09-05T19:37:03.294Z,23.10
2022-09-05T19:37:39.668Z,23.00
2022-09-05T19:47:29.655Z,22.90
2022-09-05T19:47:42.806Z,22.60
2022-09-05T19:47:51.863Z,22.70
2022-09-05T19:49:09.926Z,22.50
2022-09-05T19:51:41.123Z,22.50
2022-09-05T19:54:26.912Z,22.50
2022-09-05T19:57:04.079Z,22.60
2022-09-05T19:59:38.301Z,22.60
2022-09-05T20:02:11.036Z,22.60
2022-09-05T20:04:52.831Z,22.50
2022-09-05T20:11:58.003Z,22.20
2022-09-05T20:14:29.216Z,22.00
2022-09-05T20:17:17.627Z,21.90
2022-09-05T20:19:45.788Z,21.90
2022-09-05T20:22:47.185Z,21.90
2022-09-05T20:25:36.037Z,22.00
2022-09-05T20:28:11.667Z,22.00
2022-09-05T20:30:47.597Z,21.90
2022-09-05T20:33:28.071Z,21.80
2022-09-05T20:42:28.776Z,21.70
2022-09-05T20:43:21.510Z,21.60
2022-09-05T20:43:27.222Z,21.50
2022-09-05T20:44:55.526Z,21.50
2022-09-05T20:49:27.363Z,21.40
2022-09-05T20:54:19.416Z,21.50
2022-09-05T20:54:23.435Z,21.40
2022-09-05T20:56:22.697Z,21.50
2022-09-05T20:58:51.731Z,21.40
2022-09-05T21:01:23.508Z,21.30
2022-09-05T21:04:03.042Z,21.20
2022-09-05T21:06:33.982Z,21.20
2022-09-05T21:09:08.258Z,21.10
2022-09-05T21:11:36.134Z,21.10
2022-09-05T21:14:05.115Z,21.10
2022-09-05T21:16:42.960Z,21.10
2022-09-05T21:19:30.648Z,21.00
2022-09-05T21:22:22.343Z,21.00
2022-09-05T21:25:14.789Z,21.00
2022-09-05T21:27:54.485Z,20.90
2022-09-05T21:30:44.955Z,20.90
2022-09-05T21:33:18.978Z,20.80
2022-09-05T21:35:52.036Z,20.80
2022-09-05T21:38:32.685Z,20.80
2022-09-05T21:41:02.195Z,20.80
2022-09-05T21:47:35.296Z,20.80
2022-09-05T21:47:44.090Z,20.80
2022-09-05T21:49:09.044Z,20.90
2022-09-05T21:51:38.752Z,20.70
2022-09-05T21:59:13.271Z,20.60
2022-09-05T21:59:27.557Z,20.50
2022-09-05T22:00:07.126Z,20.40
2022-09-05T22:02:47.065Z,20.40
2022-09-05T22:05:15.329Z,20.30
2022-09-05T22:07:43.566Z,20.30
2022-09-05T22:10:14.581Z,20.30
2022-09-05T22:12:43.008Z,20.40
2022-09-05T22:15:32.271Z,20.40
2022-09-05T22:18:17.682Z,20.30
2022-09-05T22:21:01.310Z,20.30
2022-09-05T22:23:41.501Z,20.40
2022-09-05T22:26:09.358Z,20.40
2022-09-05T22:28:38.880Z,20.50
2022-09-05T22:31:07.150Z,20.60
2022-09-05T22:33:36.493Z,20.60
2022-09-05T22:36:29.802Z,20.60
2022-09-05T22:38:58.750Z,20.60
2022-09-05T22:41:30.357Z,20.60
2022-09-05T22:43:59.102Z,20.60
2022-09-05T22:46:28.141Z,20.50
2022-09-05T22:48:56.105Z,20.40
2022-09-05T22:51:23.953Z,20.20
2022-09-05T22:53:51.714Z,20.20
2022-09-05T22:56:33.899Z,20.10
2022-09-05T22:59:03.530Z,20.10
2022-09-05T23:01:32.225Z,20.10
2022-09-05T23:04:00.243Z,20.10
2022-09-05T23:06:28.108Z,20.10
2022-09-05T23:08:55.975Z,20.10
2022-09-05T23:11:23.790Z,20.10
2022-09-05T23:13:51.800Z,20.00
2022-09-05T23:16:19.818Z,20.00
2022-09-05T23:18:47.590Z,20.00
2022-09-05T23:21:15.353Z,20.00
2022-09-05T23:23:43.352Z,19.90
2022-09-05T23:26:13.234Z,19.90
2022-09-05T23:28:43.543Z,19.80
2022-09-05T23:31:12.442Z,19.80
2022-09-05T23:33:41.937Z,19.80
2022-09-05T23:36:13.808Z,19.80
2022-09-05T23:38:42.781Z,19.90
2022-09-05T23:41:14.681Z,19.90
2022-09-05T23:43:42.948Z,20.00
2022-09-05T23:46:10.804Z,20.00
2022-09-05T23:48:38.844Z,20.00
2022-09-05T23:51:08.686Z,20.00
2022-09-05T23:53:37.181Z,20.00
2022-09-05T23:56:07.044Z,20.00
2022-09-05T23:58:36.164Z,20.00
